sensor_id;sensor_type;location;lat;lon;timestamp;P1;durP1;ratioP1;P2;durP2;ratioP2
52041;SDS011;38052;45.944;13.624;2022-08-19T00:02:24;9.48;;;2.97;;
52041;SDS011;38052;45.944;13.624;2022-08-19T00:04:50;14.90;;;3.20;;
52041;SDS011;38052;45.944;13.624;2022-08-19T00:07:20;7.50;;;2.95;;
52041;SDS011;38052;45.944;13.624;2022-08-19T00:09:46;8.15;;;2.97;;
52041;SDS011;38052;45.944;13.624;2022-08-19T00:12:13;10.18;;;2.60;;
52041;SDS011;38052;45.944;13.624;2022-08-19T00:14:40;11.77;;;3.03;;
52041;SDS011;38052;45.944;13.624;2022-08-19T00:17:07;11.02;;;3.03;;
52041;SDS011;38052;45.944;13.624;2022-08-19T00:19:34;8.77;;;2.53;;
52041;SDS011;38052;45.944;13.624;2022-08-19T00:22:01;6.00;;;2.60;;
52041;SDS011;38052;45.944;13.624;2022-08-19T00:24:28;8.55;;;2.88;;
52041;SDS011;38052;45.944;13.624;2022-08-19T00:26:55;11.07;;;2.65;;
52041;SDS011;38052;45.944;13.624;2022-08-19T00:29:22;8.43;;;3.10;;
52041;SDS011;38052;45.944;13.624;2022-08-19T00:31:49;14.80;;;2.78;;
52041;SDS011;38052;45.944;13.624;2022-08-19T00:34:19;6.90;;;2.22;;
52041;SDS011;38052;45.944;13.624;2022-08-19T00:36:46;10.75;;;2.83;;
52041;SDS011;38052;45.944;13.624;2022-08-19T00:39:14;9.65;;;3.28;;
52041;SDS011;38052;45.944;13.624;2022-08-19T00:41:40;11.48;;;3.53;;
52041;SDS011;38052;45.944;13.624;2022-08-19T00:46:34;11.02;;;3.70;;
52041;SDS011;38052;45.944;13.624;2022-08-19T00:51:44;13.23;;;3.63;;
52041;SDS011;38052;45.944;13.624;2022-08-19T00:54:11;9.35;;;3.25;;
52041;SDS011;38052;45.944;13.624;2022-08-19T00:56:38;12.32;;;2.85;;
52041;SDS011;38052;45.944;13.624;2022-08-19T00:59:05;9.85;;;3.00;;
52041;SDS011;38052;45.944;13.624;2022-08-19T01:01:37;9.73;;;3.25;;
52041;SDS011;38052;45.944;13.624;2022-08-19T01:04:04;9.82;;;2.67;;
52041;SDS011;38052;45.944;13.624;2022-08-19T01:06:30;13.05;;;3.63;;
52041;SDS011;38052;45.944;13.624;2022-08-19T01:08:58;14.18;;;4.35;;
52041;SDS011;38052;45.944;13.624;2022-08-19T01:11:24;8.57;;;2.63;;
52041;SDS011;38052;45.944;13.624;2022-08-19T01:13:51;10.68;;;3.08;;
52041;SDS011;38052;45.944;13.624;2022-08-19T01:16:19;6.53;;;2.60;;
52041;SDS011;38052;45.944;13.624;2022-08-19T01:18:46;9.70;;;2.35;;
52041;SDS011;38052;45.944;13.624;2022-08-19T01:21:18;10.82;;;2.50;;
52041;SDS011;38052;45.944;13.624;2022-08-19T01:23:47;13.77;;;3.53;;
52041;SDS011;38052;45.944;13.624;2022-08-19T01:26:16;11.35;;;3.13;;
52041;SDS011;38052;45.944;13.624;2022-08-19T01:28:43;8.93;;;2.50;;
52041;SDS011;38052;45.944;13.624;2022-08-19T01:31:12;11.13;;;2.47;;
52041;SDS011;38052;45.944;13.624;2022-08-19T01:33:39;9.45;;;2.17;;
52041;SDS011;38052;45.944;13.624;2022-08-19T01:36:06;7.00;;;2.03;;
52041;SDS011;38052;45.944;13.624;2022-08-19T01:38:35;8.52;;;2.30;;
52041;SDS011;38052;45.944;13.624;2022-08-19T01:41:02;5.33;;;2.33;;
52041;SDS011;38052;45.944;13.624;2022-08-19T01:43:29;13.13;;;2.40;;
52041;SDS011;38052;45.944;13.624;2022-08-19T01:45:55;10.73;;;2.25;;
52041;SDS011;38052;45.944;13.624;2022-08-19T01:48:22;10.40;;;2.60;;
52041;SDS011;38052;45.944;13.624;2022-08-19T01:50:48;11.40;;;2.72;;
52041;SDS011;38052;45.944;13.624;2022-08-19T01:53:15;14.50;;;3.35;;
52041;SDS011;38052;45.944;13.624;2022-08-19T01:55:42;14.77;;;3.33;;
52041;SDS011;38052;45.944;13.624;2022-08-19T01:58:13;9.98;;;2.72;;
52041;SDS011;38052;45.944;13.624;2022-08-19T02:00:40;12.02;;;3.42;;
52041;SDS011;38052;45.944;13.624;2022-08-19T02:03:07;8.25;;;2.67;;
52041;SDS011;38052;45.944;13.624;2022-08-19T02:05:34;8.43;;;2.97;;
52041;SDS011;38052;45.944;13.624;2022-08-19T02:08:00;9.05;;;3.55;;
52041;SDS011;38052;45.944;13.624;2022-08-19T02:10:26;10.10;;;3.05;;
52041;SDS011;38052;45.944;13.624;2022-08-19T02:12:52;10.57;;;3.20;;
52041;SDS011;38052;45.944;13.624;2022-08-19T02:15:19;8.98;;;3.65;;
52041;SDS011;38052;45.944;13.624;2022-08-19T02:17:46;8.35;;;3.47;;
52041;SDS011;38052;45.944;13.624;2022-08-19T02:20:12;7.93;;;2.70;;
52041;SDS011;38052;45.944;13.624;2022-08-19T02:22:39;8.55;;;3.08;;
52041;SDS011;38052;45.944;13.624;2022-08-19T02:25:07;12.48;;;3.47;;
52041;SDS011;38052;45.944;13.624;2022-08-19T02:27:34;10.20;;;3.10;;
52041;SDS011;38052;45.944;13.624;2022-08-19T02:30:00;9.95;;;3.70;;
52041;SDS011;38052;45.944;13.624;2022-08-19T02:32:27;11.88;;;3.65;;
52041;SDS011;38052;45.944;13.624;2022-08-19T02:34:54;9.88;;;3.17;;
52041;SDS011;38052;45.944;13.624;2022-08-19T02:37:20;11.38;;;3.35;;
52041;SDS011;38052;45.944;13.624;2022-08-19T02:40:05;16.05;;;3.38;;
52041;SDS011;38052;45.944;13.624;2022-08-19T02:42:31;10.23;;;3.08;;
52041;SDS011;38052;45.944;13.624;2022-08-19T02:44:58;10.43;;;2.03;;
52041;SDS011;38052;45.944;13.624;2022-08-19T02:47:25;8.45;;;3.33;;
52041;SDS011;38052;45.944;13.624;2022-08-19T02:49:51;11.50;;;3.50;;
52041;SDS011;38052;45.944;13.624;2022-08-19T02:52:18;10.65;;;3.28;;
52041;SDS011;38052;45.944;13.624;2022-08-19T02:54:44;14.13;;;2.90;;
52041;SDS011;38052;45.944;13.624;2022-08-19T02:57:11;7.35;;;2.45;;
52041;SDS011;38052;45.944;13.624;2022-08-19T02:59:37;6.00;;;2.50;;
52041;SDS011;38052;45.944;13.624;2022-08-19T03:02:04;10.65;;;2.35;;
52041;SDS011;38052;45.944;13.624;2022-08-19T03:04:30;4.90;;;2.42;;
52041;SDS011;38052;45.944;13.624;2022-08-19T03:06:57;10.15;;;2.17;;
52041;SDS011;38052;45.944;13.624;2022-08-19T03:09:23;8.30;;;2.38;;
52041;SDS011;38052;45.944;13.624;2022-08-19T03:11:50;9.73;;;2.42;;
52041;SDS011;38052;45.944;13.624;2022-08-19T03:14:16;14.00;;;2.20;;
52041;SDS011;38052;45.944;13.624;2022-08-19T03:16:44;9.27;;;2.33;;
52041;SDS011;38052;45.944;13.624;2022-08-19T03:19:11;10.77;;;2.47;;
52041;SDS011;38052;45.944;13.624;2022-08-19T03:21:37;8.30;;;1.85;;
52041;SDS011;38052;45.944;13.624;2022-08-19T03:24:06;7.78;;;2.30;;
52041;SDS011;38052;45.944;13.624;2022-08-19T03:26:33;7.10;;;1.73;;
52041;SDS011;38052;45.944;13.624;2022-08-19T03:29:02;6.70;;;1.45;;
52041;SDS011;38052;45.944;13.624;2022-08-19T03:31:29;7.90;;;1.40;;
52041;SDS011;38052;45.944;13.624;2022-08-19T03:33:56;6.68;;;1.58;;
52041;SDS011;38052;45.944;13.624;2022-08-19T03:36:23;6.28;;;1.83;;
52041;SDS011;38052;45.944;13.624;2022-08-19T03:38:55;10.93;;;1.80;;
52041;SDS011;38052;45.944;13.624;2022-08-19T03:41:29;8.65;;;2.05;;
52041;SDS011;38052;45.944;13.624;2022-08-19T03:43:56;8.35;;;2.03;;
52041;SDS011;38052;45.944;13.624;2022-08-19T03:46:26;13.88;;;2.45;;
52041;SDS011;38052;45.944;13.624;2022-08-19T03:48:53;7.57;;;1.60;;
52041;SDS011;38052;45.944;13.624;2022-08-19T03:51:24;8.13;;;1.63;;
52041;SDS011;38052;45.944;13.624;2022-08-19T03:53:51;8.20;;;2.35;;
52041;SDS011;38052;45.944;13.624;2022-08-19T03:56:18;6.80;;;1.98;;
52041;SDS011;38052;45.944;13.624;2022-08-19T03:58:45;4.93;;;1.38;;
52041;SDS011;38052;45.944;13.624;2022-08-19T04:01:16;9.38;;;2.05;;
52041;SDS011;38052;45.944;13.624;2022-08-19T04:03:43;8.85;;;1.92;;
52041;SDS011;38052;45.944;13.624;2022-08-19T04:06:19;7.88;;;1.63;;
52041;SDS011;38052;45.944;13.624;2022-08-19T04:08:47;14.07;;;2.75;;
52041;SDS011;38052;45.944;13.624;2022-08-19T04:11:15;5.97;;;1.35;;
52041;SDS011;38052;45.944;13.624;2022-08-19T04:13:42;8.70;;;1.65;;
52041;SDS011;38052;45.944;13.624;2022-08-19T04:16:09;9.98;;;1.65;;
52041;SDS011;38052;45.944;13.624;2022-08-19T04:18:37;6.65;;;2.35;;
52041;SDS011;38052;45.944;13.624;2022-08-19T04:21:03;11.32;;;3.03;;
52041;SDS011;38052;45.944;13.624;2022-08-19T04:23:30;10.23;;;1.77;;
52041;SDS011;38052;45.944;13.624;2022-08-19T04:25:57;9.32;;;2.13;;
52041;SDS011;38052;45.944;13.624;2022-08-19T04:28:24;6.70;;;1.45;;
52041;SDS011;38052;45.944;13.624;2022-08-19T04:30:52;7.38;;;1.80;;
52041;SDS011;38052;45.944;13.624;2022-08-19T04:33:22;6.93;;;1.90;;
52041;SDS011;38052;45.944;13.624;2022-08-19T04:35:49;6.78;;;2.05;;
52041;SDS011;38052;45.944;13.624;2022-08-19T04:38:17;5.97;;;1.80;;
52041;SDS011;38052;45.944;13.624;2022-08-19T04:40:45;10.80;;;2.50;;
52041;SDS011;38052;45.944;13.624;2022-08-19T04:43:30;6.10;;;1.88;;
52041;SDS011;38052;45.944;13.624;2022-08-19T04:45:57;11.00;;;2.10;;
52041;SDS011;38052;45.944;13.624;2022-08-19T04:48:24;5.22;;;1.17;;
52041;SDS011;38052;45.944;13.624;2022-08-19T04:50:54;9.38;;;1.88;;
52041;SDS011;38052;45.944;13.624;2022-08-19T04:53:31;8.95;;;2.40;;
52041;SDS011;38052;45.944;13.624;2022-08-19T04:55:59;11.70;;;1.45;;
52041;SDS011;38052;45.944;13.624;2022-08-19T04:58:27;4.57;;;2.03;;
52041;SDS011;38052;45.944;13.624;2022-08-19T05:00:53;4.60;;;0.80;;
52041;SDS011;38052;45.944;13.624;2022-08-19T05:03:20;2.45;;;0.57;;
52041;SDS011;38052;45.944;13.624;2022-08-19T05:05:47;10.45;;;1.35;;
52041;SDS011;38052;45.944;13.624;2022-08-19T05:08:15;4.70;;;1.13;;
52041;SDS011;38052;45.944;13.624;2022-08-19T05:13:11;3.50;;;0.85;;
52041;SDS011;38052;45.944;13.624;2022-08-19T05:15:37;4.10;;;0.90;;
52041;SDS011;38052;45.944;13.624;2022-08-19T05:18:04;3.20;;;1.10;;
52041;SDS011;38052;45.944;13.624;2022-08-19T05:20:49;4.25;;;0.60;;
52041;SDS011;38052;45.944;13.624;2022-08-19T05:23:34;1.27;;;0.30;;
52041;SDS011;38052;45.944;13.624;2022-08-19T05:26:00;2.00;;;0.40;;
52041;SDS011;38052;45.944;13.624;2022-08-19T05:28:27;5.18;;;1.15;;
52041;SDS011;38052;45.944;13.624;2022-08-19T05:30:53;3.90;;;0.40;;
52041;SDS011;38052;45.944;13.624;2022-08-19T05:33:20;3.63;;;0.52;;
52041;SDS011;38052;45.944;13.624;2022-08-19T05:35:48;2.05;;;0.70;;
52041;SDS011;38052;45.944;13.624;2022-08-19T05:38:15;6.63;;;1.15;;
52041;SDS011;38052;45.944;13.624;2022-08-19T05:40:41;5.25;;;0.52;;
52041;SDS011;38052;45.944;13.624;2022-08-19T05:43:11;1.88;;;0.35;;
52041;SDS011;38052;45.944;13.624;2022-08-19T05:48:14;1.45;;;0.20;;
52041;SDS011;38052;45.944;13.624;2022-08-19T05:50:45;3.88;;;0.40;;
52041;SDS011;38052;45.944;13.624;2022-08-19T05:53:12;1.73;;;0.43;;
52041;SDS011;38052;45.944;13.624;2022-08-19T05:55:39;2.20;;;0.35;;
52041;SDS011;38052;45.944;13.624;2022-08-19T05:58:05;3.20;;;0.60;;
52041;SDS011;38052;45.944;13.624;2022-08-19T06:00:35;1.55;;;0.20;;
52041;SDS011;38052;45.944;13.624;2022-08-19T06:03:03;2.08;;;0.60;;
52041;SDS011;38052;45.944;13.624;2022-08-19T06:05:32;2.97;;;1.05;;
52041;SDS011;38052;45.944;13.624;2022-08-19T06:07:58;3.13;;;0.40;;
52041;SDS011;38052;45.944;13.624;2022-08-19T06:10:25;1.98;;;0.30;;
52041;SDS011;38052;45.944;13.624;2022-08-19T06:12:52;3.45;;;0.32;;
52041;SDS011;38052;45.944;13.624;2022-08-19T06:15:18;1.80;;;0.60;;
52041;SDS011;38052;45.944;13.624;2022-08-19T06:17:45;2.13;;;0.40;;
52041;SDS011;38052;45.944;13.624;2022-08-19T06:20:12;1.48;;;0.30;;
52041;SDS011;38052;45.944;13.624;2022-08-19T06:22:39;3.25;;;0.57;;
52041;SDS011;38052;45.944;13.624;2022-08-19T06:25:05;2.92;;;0.55;;
52041;SDS011;38052;45.944;13.624;2022-08-19T06:27:32;2.45;;;0.73;;
52041;SDS011;38052;45.944;13.624;2022-08-19T06:29:58;4.45;;;0.73;;
52041;SDS011;38052;45.944;13.624;2022-08-19T06:32:25;4.30;;;0.50;;
52041;SDS011;38052;45.944;13.624;2022-08-19T06:34:51;2.50;;;0.98;;
52041;SDS011;38052;45.944;13.624;2022-08-19T06:37:18;2.97;;;0.30;;
52041;SDS011;38052;45.944;13.624;2022-08-19T06:39:46;7.75;;;0.63;;
52041;SDS011;38052;45.944;13.624;2022-08-19T06:42:13;4.00;;;0.73;;
52041;SDS011;38052;45.944;13.624;2022-08-19T06:44:44;4.65;;;0.88;;
52041;SDS011;38052;45.944;13.624;2022-08-19T06:47:14;1.33;;;0.50;;
52041;SDS011;38052;45.944;13.624;2022-08-19T06:49:41;3.42;;;0.60;;
52041;SDS011;38052;45.944;13.624;2022-08-19T06:52:08;3.63;;;0.38;;
52041;SDS011;38052;45.944;13.624;2022-08-19T06:54:37;4.25;;;0.70;;
52041;SDS011;38052;45.944;13.624;2022-08-19T06:57:04;2.85;;;0.47;;
52041;SDS011;38052;45.944;13.624;2022-08-19T06:59:31;1.38;;;0.47;;
52041;SDS011;38052;45.944;13.624;2022-08-19T07:01:59;3.35;;;0.70;;
52041;SDS011;38052;45.944;13.624;2022-08-19T07:04:27;3.88;;;0.90;;
52041;SDS011;38052;45.944;13.624;2022-08-19T07:06:57;6.25;;;0.45;;
52041;SDS011;38052;45.944;13.624;2022-08-19T07:09:25;4.32;;;0.68;;
52041;SDS011;38052;45.944;13.624;2022-08-19T07:11:52;4.00;;;0.65;;
52041;SDS011;38052;45.944;13.624;2022-08-19T07:14:20;3.50;;;0.80;;
52041;SDS011;38052;45.944;13.624;2022-08-19T07:16:47;2.17;;;0.20;;
52041;SDS011;38052;45.944;13.624;2022-08-19T07:19:15;3.70;;;0.30;;
52041;SDS011;38052;45.944;13.624;2022-08-19T07:21:42;3.92;;;0.40;;
52041;SDS011;38052;45.944;13.624;2022-08-19T07:24:09;0.85;;;0.40;;
52041;SDS011;38052;45.944;13.624;2022-08-19T07:26:38;1.17;;;0.30;;
52041;SDS011;38052;45.944;13.624;2022-08-19T07:29:05;1.67;;;0.57;;
52041;SDS011;38052;45.944;13.624;2022-08-19T07:31:32;4.90;;;0.70;;
52041;SDS011;38052;45.944;13.624;2022-08-19T07:34:06;3.47;;;0.75;;
52041;SDS011;38052;45.944;13.624;2022-08-19T07:36:33;4.72;;;0.75;;
52041;SDS011;38052;45.944;13.624;2022-08-19T07:39:00;1.35;;;0.40;;
52041;SDS011;38052;45.944;13.624;2022-08-19T07:41:28;3.30;;;0.50;;
52041;SDS011;38052;45.944;13.624;2022-08-19T07:43:56;2.22;;;0.52;;
52041;SDS011;38052;45.944;13.624;2022-08-19T07:46:22;2.47;;;0.57;;
52041;SDS011;38052;45.944;13.624;2022-08-19T07:48:50;5.00;;;0.60;;
52041;SDS011;38052;45.944;13.624;2022-08-19T07:51:18;2.40;;;0.47;;
52041;SDS011;38052;45.944;13.624;2022-08-19T07:53:46;3.40;;;0.70;;
52041;SDS011;38052;45.944;13.624;2022-08-19T07:56:13;4.03;;;0.50;;
52041;SDS011;38052;45.944;13.624;2022-08-19T07:58:41;5.47;;;0.45;;
52041;SDS011;38052;45.944;13.624;2022-08-19T08:01:10;3.90;;;1.15;;
52041;SDS011;38052;45.944;13.624;2022-08-19T08:03:37;4.30;;;0.35;;
52041;SDS011;38052;45.944;13.624;2022-08-19T08:06:33;3.88;;;0.32;;
52041;SDS011;38052;45.944;13.624;2022-08-19T08:09:19;4.85;;;0.73;;
52041;SDS011;38052;45.944;13.624;2022-08-19T08:11:48;3.60;;;0.63;;
52041;SDS011;38052;45.944;13.624;2022-08-19T08:14:16;2.35;;;0.70;;
52041;SDS011;38052;45.944;13.624;2022-08-19T08:16:42;2.60;;;0.60;;
52041;SDS011;38052;45.944;13.624;2022-08-19T08:19:11;5.13;;;0.60;;
52041;SDS011;38052;45.944;13.624;2022-08-19T08:21:40;2.53;;;0.73;;
52041;SDS011;38052;45.944;13.624;2022-08-19T08:24:06;5.43;;;0.50;;
52041;SDS011;38052;45.944;13.624;2022-08-19T08:26:33;3.58;;;0.88;;
52041;SDS011;38052;45.944;13.624;2022-08-19T08:29:00;2.58;;;0.63;;
52041;SDS011;38052;45.944;13.624;2022-08-19T08:31:26;2.47;;;0.70;;
52041;SDS011;38052;45.944;13.624;2022-08-19T08:33:53;10.05;;;1.38;;
52041;SDS011;38052;45.944;13.624;2022-08-19T08:36:19;1.55;;;0.50;;
52041;SDS011;38052;45.944;13.624;2022-08-19T08:38:46;4.28;;;0.70;;
52041;SDS011;38052;45.944;13.624;2022-08-19T08:43:45;5.57;;;1.00;;
52041;SDS011;38052;45.944;13.624;2022-08-19T08:46:16;5.72;;;0.60;;
52041;SDS011;38052;45.944;13.624;2022-08-19T08:48:52;6.57;;;1.50;;
52041;SDS011;38052;45.944;13.624;2022-08-19T08:51:23;5.28;;;1.38;;
52041;SDS011;38052;45.944;13.624;2022-08-19T08:53:51;5.60;;;1.33;;
52041;SDS011;38052;45.944;13.624;2022-08-19T08:56:18;9.10;;;1.20;;
52041;SDS011;38052;45.944;13.624;2022-08-19T08:58:54;6.13;;;2.15;;
52041;SDS011;38052;45.944;13.624;2022-08-19T09:01:22;6.38;;;0.95;;
52041;SDS011;38052;45.944;13.624;2022-08-19T09:03:48;6.63;;;1.27;;
52041;SDS011;38052;45.944;13.624;2022-08-19T09:08:47;5.70;;;1.33;;
52041;SDS011;38052;45.944;13.624;2022-08-19T09:13:43;6.75;;;1.38;;
52041;SDS011;38052;45.944;13.624;2022-08-19T09:16:12;10.15;;;1.83;;
52041;SDS011;38052;45.944;13.624;2022-08-19T09:21:08;6.38;;;1.60;;
52041;SDS011;38052;45.944;13.624;2022-08-19T09:23:35;9.57;;;2.55;;
52041;SDS011;38052;45.944;13.624;2022-08-19T09:26:05;7.45;;;1.83;;
52041;SDS011;38052;45.944;13.624;2022-08-19T09:28:32;8.40;;;1.40;;
52041;SDS011;38052;45.944;13.624;2022-08-19T09:30:58;9.38;;;2.25;;
52041;SDS011;38052;45.944;13.624;2022-08-19T09:33:25;5.78;;;1.60;;
52041;SDS011;38052;45.944;13.624;2022-08-19T09:36:00;5.13;;;1.58;;
52041;SDS011;38052;45.944;13.624;2022-08-19T09:38:28;5.07;;;1.35;;
52041;SDS011;38052;45.944;13.624;2022-08-19T09:40:54;5.60;;;1.38;;
52041;SDS011;38052;45.944;13.624;2022-08-19T09:43:21;6.45;;;1.48;;
52041;SDS011;38052;45.944;13.624;2022-08-19T09:45:47;5.15;;;1.55;;
52041;SDS011;38052;45.944;13.624;2022-08-19T09:48:14;7.97;;;2.75;;
52041;SDS011;38052;45.944;13.624;2022-08-19T09:50:40;6.82;;;1.67;;
52041;SDS011;38052;45.944;13.624;2022-08-19T09:53:07;8.85;;;1.42;;
52041;SDS011;38052;45.944;13.624;2022-08-19T09:55:34;10.90;;;2.67;;
52041;SDS011;38052;45.944;13.624;2022-08-19T09:58:00;8.88;;;2.95;;
52041;SDS011;38052;45.944;13.624;2022-08-19T10:00:27;10.70;;;2.10;;
52041;SDS011;38052;45.944;13.624;2022-08-19T10:02:53;11.13;;;1.90;;
52041;SDS011;38052;45.944;13.624;2022-08-19T10:05:20;8.77;;;2.15;;
52041;SDS011;38052;45.944;13.624;2022-08-19T10:08:04;9.90;;;2.40;;
52041;SDS011;38052;45.944;13.624;2022-08-19T10:10:34;10.93;;;2.03;;
52041;SDS011;38052;45.944;13.624;2022-08-19T10:13:01;10.65;;;1.73;;
52041;SDS011;38052;45.944;13.624;2022-08-19T10:15:27;7.22;;;1.70;;
52041;SDS011;38052;45.944;13.624;2022-08-19T10:17:53;9.82;;;1.88;;
52041;SDS011;38052;45.944;13.624;2022-08-19T10:20:20;8.43;;;1.73;;
52041;SDS011;38052;45.944;13.624;2022-08-19T10:22:47;11.90;;;2.00;;
52041;SDS011;38052;45.944;13.624;2022-08-19T10:25:14;9.90;;;1.40;;
52041;SDS011;38052;45.944;13.624;2022-08-19T10:27:41;8.82;;;2.80;;
52041;SDS011;38052;45.944;13.624;2022-08-19T10:30:08;12.85;;;2.38;;
52041;SDS011;38052;45.944;13.624;2022-08-19T10:32:34;10.13;;;2.08;;
52041;SDS011;38052;45.944;13.624;2022-08-19T10:35:01;6.57;;;1.92;;
52041;SDS011;38052;45.944;13.624;2022-08-19T10:37:28;13.57;;;2.72;;
52041;SDS011;38052;45.944;13.624;2022-08-19T10:39:55;10.20;;;2.55;;
52041;SDS011;38052;45.944;13.624;2022-08-19T10:42:22;12.75;;;2.60;;
52041;SDS011;38052;45.944;13.624;2022-08-19T10:44:49;9.55;;;2.97;;
52041;SDS011;38052;45.944;13.624;2022-08-19T10:47:15;8.38;;;2.13;;
52041;SDS011;38052;45.944;13.624;2022-08-19T10:49:42;8.68;;;4.35;;
52041;SDS011;38052;45.944;13.624;2022-08-19T10:52:27;22.60;;;6.65;;
52041;SDS011;38052;45.944;13.624;2022-08-19T10:55:02;16.02;;;6.68;;
52041;SDS011;38052;45.944;13.624;2022-08-19T10:57:47;14.95;;;4.50;;
52041;SDS011;38052;45.944;13.624;2022-08-19T11:00:14;11.57;;;5.28;;
52041;SDS011;38052;45.944;13.624;2022-08-19T11:02:40;18.85;;;5.43;;
52041;SDS011;38052;45.944;13.624;2022-08-19T11:05:07;8.48;;;3.35;;
52041;SDS011;38052;45.944;13.624;2022-08-19T11:07:36;11.68;;;4.18;;
52041;SDS011;38052;45.944;13.624;2022-08-19T11:10:03;10.40;;;2.67;;
52041;SDS011;38052;45.944;13.624;2022-08-19T11:12:29;11.05;;;2.30;;
52041;SDS011;38052;45.944;13.624;2022-08-19T11:14:56;10.85;;;2.90;;
52041;SDS011;38052;45.944;13.624;2022-08-19T11:17:23;9.88;;;2.78;;
52041;SDS011;38052;45.944;13.624;2022-08-19T11:19:50;12.75;;;2.83;;
52041;SDS011;38052;45.944;13.624;2022-08-19T11:22:17;15.20;;;4.35;;
52041;SDS011;38052;45.944;13.624;2022-08-19T11:24:43;13.38;;;3.25;;
52041;SDS011;38052;45.944;13.624;2022-08-19T11:27:09;13.75;;;4.28;;
52041;SDS011;38052;45.944;13.624;2022-08-19T11:29:39;17.40;;;5.00;;
52041;SDS011;38052;45.944;13.624;2022-08-19T11:32:07;15.80;;;4.78;;
52041;SDS011;38052;45.944;13.624;2022-08-19T11:34:35;18.73;;;4.72;;
52041;SDS011;38052;45.944;13.624;2022-08-19T11:37:02;15.02;;;3.95;;
52041;SDS011;38052;45.944;13.624;2022-08-19T11:39:29;14.95;;;4.18;;
52041;SDS011;38052;45.944;13.624;2022-08-19T11:41:57;16.33;;;4.63;;
52041;SDS011;38052;45.944;13.624;2022-08-19T11:44:24;17.83;;;3.53;;
52041;SDS011;38052;45.944;13.624;2022-08-19T11:46:50;14.68;;;4.55;;
52041;SDS011;38052;45.944;13.624;2022-08-19T11:49:18;11.65;;;4.25;;
52041;SDS011;38052;45.944;13.624;2022-08-19T11:51:46;17.60;;;3.83;;
52041;SDS011;38052;45.944;13.624;2022-08-19T11:54:13;14.63;;;4.18;;
52041;SDS011;38052;45.944;13.624;2022-08-19T11:56:41;21.50;;;4.32;;
52041;SDS011;38052;45.944;13.624;2022-08-19T11:59:08;17.92;;;5.10;;
52041;SDS011;38052;45.944;13.624;2022-08-19T12:01:36;20.08;;;4.68;;
52041;SDS011;38052;45.944;13.624;2022-08-19T12:04:03;11.70;;;4.65;;
52041;SDS011;38052;45.944;13.624;2022-08-19T12:06:49;16.55;;;4.13;;
52041;SDS011;38052;45.944;13.624;2022-08-19T12:09:15;14.48;;;3.75;;
52041;SDS011;38052;45.944;13.624;2022-08-19T12:11:42;14.27;;;3.60;;
52041;SDS011;38052;45.944;13.624;2022-08-19T12:14:10;10.57;;;2.90;;
52041;SDS011;38052;45.944;13.624;2022-08-19T12:16:36;16.25;;;2.85;;
52041;SDS011;38052;45.944;13.624;2022-08-19T12:19:04;14.13;;;3.97;;
52041;SDS011;38052;45.944;13.624;2022-08-19T12:21:31;13.95;;;4.25;;
52041;SDS011;38052;45.944;13.624;2022-08-19T12:23:58;14.75;;;4.40;;
52041;SDS011;38052;45.944;13.624;2022-08-19T12:26:26;11.70;;;3.47;;
52041;SDS011;38052;45.944;13.624;2022-08-19T12:28:52;19.60;;;3.70;;
52041;SDS011;38052;45.944;13.624;2022-08-19T12:31:19;16.15;;;3.38;;
52041;SDS011;38052;45.944;13.624;2022-08-19T12:33:45;13.38;;;3.67;;
52041;SDS011;38052;45.944;13.624;2022-08-19T12:36:13;11.70;;;4.28;;
52041;SDS011;38052;45.944;13.624;2022-08-19T12:38:40;11.80;;;3.75;;
52041;SDS011;38052;45.944;13.624;2022-08-19T12:41:07;18.05;;;4.47;;
52041;SDS011;38052;45.944;13.624;2022-08-19T12:43:35;15.60;;;3.67;;
52041;SDS011;38052;45.944;13.624;2022-08-19T12:46:03;18.80;;;4.43;;
52041;SDS011;38052;45.944;13.624;2022-08-19T12:48:30;10.70;;;4.03;;
52041;SDS011;38052;45.944;13.624;2022-08-19T12:50:57;20.10;;;4.28;;
52041;SDS011;38052;45.944;13.624;2022-08-19T12:53:24;12.90;;;3.92;;
52041;SDS011;38052;45.944;13.624;2022-08-19T12:55:57;12.15;;;3.22;;
52041;SDS011;38052;45.944;13.624;2022-08-19T12:58:24;13.50;;;3.85;;
52041;SDS011;38052;45.944;13.624;2022-08-19T13:00:51;14.18;;;3.88;;
52041;SDS011;38052;45.944;13.624;2022-08-19T13:03:17;19.98;;;4.55;;
52041;SDS011;38052;45.944;13.624;2022-08-19T13:05:43;16.67;;;3.33;;
52041;SDS011;38052;45.944;13.624;2022-08-19T13:08:09;11.88;;;3.10;;
52041;SDS011;38052;45.944;13.624;2022-08-19T13:10:36;13.50;;;4.70;;
52041;SDS011;38052;45.944;13.624;2022-08-19T13:13:04;13.98;;;4.55;;
52041;SDS011;38052;45.944;13.624;2022-08-19T13:15:36;13.25;;;3.50;;
52041;SDS011;38052;45.944;13.624;2022-08-19T13:18:02;11.23;;;3.25;;
52041;SDS011;38052;45.944;13.624;2022-08-19T13:20:28;13.90;;;2.75;;
52041;SDS011;38052;45.944;13.624;2022-08-19T13:22:55;14.70;;;3.35;;
52041;SDS011;38052;45.944;13.624;2022-08-19T13:25:22;10.55;;;3.00;;
52041;SDS011;38052;45.944;13.624;2022-08-19T13:27:49;11.88;;;3.20;;
52041;SDS011;38052;45.944;13.624;2022-08-19T13:30:17;11.10;;;2.63;;
52041;SDS011;38052;45.944;13.624;2022-08-19T13:33:02;11.63;;;3.17;;
52041;SDS011;38052;45.944;13.624;2022-08-19T13:35:51;12.98;;;3.45;;
52041;SDS011;38052;45.944;13.624;2022-08-19T13:38:21;7.78;;;2.38;;
52041;SDS011;38052;45.944;13.624;2022-08-19T13:40:48;8.35;;;2.50;;
52041;SDS011;38052;45.944;13.624;2022-08-19T13:43:15;9.27;;;2.30;;
52041;SDS011;38052;45.944;13.624;2022-08-19T13:45:42;15.43;;;2.70;;
52041;SDS011;38052;45.944;13.624;2022-08-19T13:48:08;11.55;;;2.13;;
52041;SDS011;38052;45.944;13.624;2022-08-19T13:50:38;8.18;;;2.92;;
52041;SDS011;38052;45.944;13.624;2022-08-19T13:53:06;11.27;;;2.85;;
52041;SDS011;38052;45.944;13.624;2022-08-19T13:55:33;10.35;;;2.63;;
52041;SDS011;38052;45.944;13.624;2022-08-19T13:57:59;11.45;;;2.92;;
52041;SDS011;38052;45.944;13.624;2022-08-19T14:00:31;8.43;;;1.47;;
52041;SDS011;38052;45.944;13.624;2022-08-19T14:02:58;10.55;;;2.55;;
52041;SDS011;38052;45.944;13.624;2022-08-19T14:05:25;8.20;;;1.75;;
52041;SDS011;38052;45.944;13.624;2022-08-19T14:07:52;2.90;;;1.00;;
52041;SDS011;38052;45.944;13.624;2022-08-19T14:10:19;4.90;;;1.20;;
52041;SDS011;38052;45.944;13.624;2022-08-19T14:12:46;3.28;;;1.20;;
52041;SDS011;38052;45.944;13.624;2022-08-19T14:15:12;6.18;;;1.25;;
52041;SDS011;38052;45.944;13.624;2022-08-19T14:17:39;3.08;;;1.20;;
52041;SDS011;38052;45.944;13.624;2022-08-19T14:20:08;5.43;;;1.45;;
52041;SDS011;38052;45.944;13.624;2022-08-19T14:22:38;6.78;;;1.45;;
52041;SDS011;38052;45.944;13.624;2022-08-19T14:25:05;7.97;;;1.30;;
52041;SDS011;38052;45.944;13.624;2022-08-19T14:27:33;9.35;;;1.50;;
52041;SDS011;38052;45.944;13.624;2022-08-19T14:29:59;5.03;;;1.45;;
52041;SDS011;38052;45.944;13.624;2022-08-19T14:32:26;6.85;;;1.65;;
52041;SDS011;38052;45.944;13.624;2022-08-19T14:34:53;8.30;;;1.80;;
52041;SDS011;38052;45.944;13.624;2022-08-19T14:37:19;7.82;;;2.08;;
52041;SDS011;38052;45.944;13.624;2022-08-19T14:39:47;10.85;;;2.00;;
52041;SDS011;38052;45.944;13.624;2022-08-19T14:42:13;10.73;;;2.28;;
52041;SDS011;38052;45.944;13.624;2022-08-19T14:44:39;7.72;;;2.15;;
52041;SDS011;38052;45.944;13.624;2022-08-19T14:47:06;4.43;;;1.60;;
52041;SDS011;38052;45.944;13.624;2022-08-19T14:49:33;4.72;;;1.73;;
52041;SDS011;38052;45.944;13.624;2022-08-19T14:51:59;8.35;;;1.75;;
52041;SDS011;38052;45.944;13.624;2022-08-19T14:54:25;12.88;;;2.58;;